createdAt,value
2018-10-16T00:00:32.178Z,100435.08
2018-10-16T00:01:38.324Z,100433.23
2018-10-16T00:02:44.089Z,100426.73
2018-10-16T00:03:50.472Z,100424.88
2018-10-16T00:04:56.821Z,100425.05
2018-10-16T00:06:03.140Z,100426.23
2018-10-16T00:07:09.395Z,100427.02
2018-10-16T00:08:15.455Z,100433.90
2018-10-16T00:09:21.816Z,100433.89
2018-10-16T00:10:27.852Z,100430.08
2018-10-16T00:11:34.235Z,100431.83
2018-10-16T00:12:39.989Z,100437.13
2018-10-16T00:13:46.339Z,100434.95
2018-10-16T00:14:52.651Z,100430.17
2018-10-16T00:15:58.792Z,100431.44
2018-10-16T00:17:04.388Z,100428.56
2018-10-16T00:18:10.780Z,100422.72
2018-10-16T00:19:17.145Z,100423.89
2018-10-16T00:20:23.441Z,100418.03
2018-10-16T00:21:29.737Z,100418.84
2018-10-16T00:22:36.200Z,100410.98
2018-10-16T00:23:42.532Z,100407.78
2018-10-16T00:24:48.525Z,100402.94
2018-10-16T00:25:54.589Z,100406.13
2018-10-16T00:27:00.864Z,100406.75
2018-10-16T00:28:06.949Z,100408.83
2018-10-16T00:29:13.341Z,100404.80
2018-10-16T00:30:19.433Z,100403.59
2018-10-16T00:31:25.802Z,100407.57
2018-10-16T00:32:32.262Z,100401.23
2018-10-16T00:33:38.833Z,100396.28
2018-10-16T00:34:45.270Z,100396.84
2018-10-16T00:35:51.589Z,100398.44
2018-10-16T00:36:57.868Z,100393.13
2018-10-16T00:38:03.826Z,100393.15
2018-10-16T00:39:09.836Z,100396.23
2018-10-16T00:40:16.914Z,100392.72
2018-10-16T00:41:23.835Z,100395.97
2018-10-16T00:42:30.239Z,100392.33
2018-10-16T00:43:36.564Z,100389.15
2018-10-16T00:44:42.872Z,100390.21
2018-10-16T00:45:49.224Z,100393.41
2018-10-16T00:46:55.290Z,100390.59
2018-10-16T00:48:01.614Z,100395.22
2018-10-16T00:49:07.914Z,100395.59
2018-10-16T00:50:15.379Z,100395.94
2018-10-16T00:51:22.674Z,100392.62
2018-10-16T00:52:28.893Z,100396.19
2018-10-16T00:53:35.240Z,100393.16
2018-10-16T00:54:41.652Z,100389.50
2018-10-16T00:55:48.677Z,100391.65
2018-10-16T00:56:55.101Z,100390.13
2018-10-16T00:58:01.596Z,100393.08
2018-10-16T00:59:07.320Z,100390.16
2018-10-16T01:00:13.361Z,100393.75
2018-10-16T01:01:19.132Z,100388.59
2018-10-16T01:02:25.514Z,100395.73
2018-10-16T01:03:31.823Z,100395.55
2018-10-16T01:04:38.147Z,100391.70
2018-10-16T01:05:43.782Z,100390.69
2018-10-16T01:06:50.149Z,100391.15
2018-10-16T01:07:56.481Z,100391.92
2018-10-16T01:09:02.411Z,100392.00
2018-10-16T01:10:07.690Z,100399.13
2018-10-16T01:11:13.086Z,100390.91
2018-10-16T01:12:19.498Z,100393.03
2018-10-16T01:13:25.424Z,100394.22
2018-10-16T01:14:31.781Z,100396.09
2018-10-16T01:15:37.750Z,100393.06
2018-10-16T01:16:44.116Z,100394.69
2018-10-16T01:17:50.190Z,100390.67
2018-10-16T01:18:56.507Z,100394.48
2018-10-16T01:20:02.563Z,100394.73
2018-10-16T01:21:08.839Z,100394.30
2018-10-16T01:22:14.773Z,100386.93
2018-10-16T01:23:21.371Z,100390.80
2018-10-16T01:24:27.659Z,100391.19
2018-10-16T01:25:33.974Z,100386.44
2018-10-16T01:26:40.103Z,100386.52
2018-10-16T01:27:46.483Z,100388.64
2018-10-16T01:28:52.898Z,100384.77
2018-10-16T01:29:59.212Z,100382.38
2018-10-16T01:31:05.157Z,100387.88
2018-10-16T01:32:11.516Z,100381.36
2018-10-16T01:33:18.029Z,100384.86
2018-10-16T01:34:24.363Z,100384.21
2018-10-16T01:35:31.260Z,100385.77
2018-10-16T01:36:37.272Z,100383.61
2018-10-16T01:37:43.599Z,100388.18
2018-10-16T01:38:49.741Z,100381.80
2018-10-16T01:39:56.347Z,100384.94
2018-10-16T01:41:02.668Z,100389.35
2018-10-16T01:42:09.098Z,100387.31
2018-10-16T01:43:15.331Z,100388.56
2018-10-16T01:44:21.479Z,100388.08
2018-10-16T01:45:27.791Z,100383.99
2018-10-16T01:46:34.124Z,100381.72
2018-10-16T01:47:40.499Z,100383.89
2018-10-16T01:48:46.830Z,100385.94
2018-10-16T01:49:53.239Z,100391.77
2018-10-16T01:50:59.583Z,100394.20
2018-10-16T01:52:05.907Z,100397.61
2018-10-16T01:53:12.207Z,100398.84
2018-10-16T01:54:19.213Z,100400.42
2018-10-16T01:55:25.614Z,100397.52
2018-10-16T01:56:32.159Z,100406.56
2018-10-16T01:57:38.273Z,100402.86
2018-10-16T01:58:44.668Z,100401.30
2018-10-16T01:59:50.688Z,100402.02
2018-10-16T02:00:56.624Z,100405.76
2018-10-16T02:02:02.787Z,100405.61
2018-10-16T02:03:08.871Z,100407.20
2018-10-16T02:04:15.192Z,100402.82
2018-10-16T02:05:21.270Z,100405.02
2018-10-16T02:06:27.643Z,100406.30
2018-10-16T02:07:34.034Z,100405.02
2018-10-16T02:08:40.432Z,100412.50
2018-10-16T02:09:46.753Z,100410.95
2018-10-16T02:10:52.832Z,100419.48
2018-10-16T02:11:59.098Z,100413.84
2018-10-16T02:13:04.686Z,100423.34
2018-10-16T02:14:11.071Z,100422.02
2018-10-16T02:15:17.400Z,100424.06
2018-10-16T02:16:23.456Z,100418.66
2018-10-16T02:17:29.740Z,100419.97
2018-10-16T02:18:36.020Z,100417.54
2018-10-16T02:19:42.496Z,100417.31
2018-10-16T02:20:48.771Z,100414.73
2018-10-16T02:21:54.729Z,100417.91
2018-10-16T02:23:01.004Z,100418.25
2018-10-16T02:24:07.093Z,100426.22
2018-10-16T02:25:13.480Z,100418.84
2018-10-16T02:26:19.469Z,100424.98
2018-10-16T02:27:25.528Z,100425.45
2018-10-16T02:28:31.813Z,100422.82
2018-10-16T02:29:38.235Z,100415.63
2018-10-16T02:30:44.535Z,100417.86
2018-10-16T02:31:50.663Z,100419.08
2018-10-16T02:32:57.793Z,100424.61
2018-10-16T02:34:04.124Z,100418.41
2018-10-16T02:35:09.801Z,100424.08
2018-10-16T02:36:16.229Z,100425.31
2018-10-16T02:37:22.511Z,100425.06
2018-10-16T02:38:28.853Z,100425.80
2018-10-16T02:39:35.235Z,100420.30
2018-10-16T02:40:41.605Z,100423.09
2018-10-16T02:41:47.891Z,100421.38
2018-10-16T02:42:54.260Z,100422.36
2018-10-16T02:44:00.568Z,100417.28
2018-10-16T02:45:06.031Z,100416.15
2018-10-16T02:46:12.417Z,100415.27
2018-10-16T02:47:18.686Z,100424.37
2018-10-16T02:48:25.008Z,100425.56
2018-10-16T02:49:31.371Z,100429.58
2018-10-16T02:50:37.956Z,100420.89
2018-10-16T02:51:44.385Z,100423.48
2018-10-16T02:52:50.662Z,100420.44
2018-10-16T02:53:57.004Z,100416.52
2018-10-16T02:55:03.275Z,100416.86
2018-10-16T02:56:09.627Z,100411.04
2018-10-16T02:57:15.728Z,100412.14
2018-10-16T02:58:22.029Z,100413.00
2018-10-16T02:59:28.324Z,100414.25
2018-10-16T03:00:34.666Z,100418.06
2018-10-16T03:01:41.157Z,100419.05
2018-10-16T03:02:47.581Z,100421.38
2018-10-16T03:03:53.656Z,100417.19
2018-10-16T03:04:59.889Z,100417.18
2018-10-16T03:06:05.524Z,100411.59
2018-10-16T03:07:11.533Z,100418.22
2018-10-16T03:08:17.900Z,100412.06
2018-10-16T03:09:24.220Z,100413.58
2018-10-16T03:10:30.600Z,100415.00
2018-10-16T03:11:37.078Z,100415.09
2018-10-16T03:12:43.361Z,100418.16
2018-10-16T03:13:49.673Z,100418.52
2018-10-16T03:14:55.985Z,100420.23
2018-10-16T03:16:03.373Z,100419.73
2018-10-16T03:17:10.094Z,100423.52
2018-10-16T03:18:16.515Z,100417.58
2018-10-16T03:19:22.755Z,100423.24
2018-10-16T03:20:29.223Z,100423.77
2018-10-16T03:21:35.805Z,100421.19
2018-10-16T03:22:42.123Z,100423.37
2018-10-16T03:23:48.569Z,100428.75
2018-10-16T03:24:54.865Z,100424.55
2018-10-16T03:26:01.309Z,100423.31
2018-10-16T03:27:07.429Z,100417.62
2018-10-16T03:28:13.496Z,100423.76
2018-10-16T03:29:19.876Z,100423.30
2018-10-16T03:30:26.086Z,100426.70
2018-10-16T03:31:32.550Z,100432.14
2018-10-16T03:32:38.811Z,100432.23
2018-10-16T03:33:45.149Z,100431.80
2018-10-16T03:34:51.538Z,100426.83
2018-10-16T03:35:57.947Z,100426.09
2018-10-16T03:37:04.308Z,100422.94
2018-10-16T03:38:10.602Z,100420.64
2018-10-16T03:39:17.479Z,100428.11
2018-10-16T03:40:23.640Z,100426.64
2018-10-16T03:41:30.064Z,100436.03
2018-10-16T03:42:36.361Z,100442.23
2018-10-16T03:43:42.687Z,100439.89
2018-10-16T03:44:48.970Z,100444.52
2018-10-16T03:45:55.390Z,100449.56
2018-10-16T03:47:01.738Z,100450.84
2018-10-16T03:48:08.206Z,100454.62
2018-10-16T03:49:14.533Z,100449.01
2018-10-16T03:50:20.816Z,100444.52
2018-10-16T03:51:26.766Z,100452.42
2018-10-16T03:52:33.182Z,100451.28
2018-10-16T03:53:40.229Z,100449.88
2018-10-16T03:54:46.832Z,100454.23
2018-10-16T03:55:53.467Z,100451.97
2018-10-16T03:57:00.126Z,100452.88
2018-10-16T03:58:06.626Z,100455.97
2018-10-16T03:59:13.119Z,100457.86
2018-10-16T04:00:19.544Z,100452.59
2018-10-16T04:01:25.583Z,100461.17
2018-10-16T04:02:32.028Z,100463.37
2018-10-16T04:03:38.340Z,100458.39
2018-10-16T04:04:44.675Z,100456.22
2018-10-16T04:05:50.935Z,100456.65
2018-10-16T04:06:57.281Z,100462.82
2018-10-16T04:08:03.558Z,100463.65
2018-10-16T04:09:09.871Z,100461.88
2018-10-16T04:10:17.128Z,100469.56
2018-10-16T04:11:23.428Z,100469.08
2018-10-16T04:12:29.769Z,100466.53
2018-10-16T04:13:36.204Z,100467.50
2018-10-16T04:14:42.571Z,100469.61
2018-10-16T04:15:48.906Z,100468.98
2018-10-16T04:16:55.182Z,100467.03
2018-10-16T04:18:02.175Z,100479.63
2018-10-16T04:19:08.785Z,100477.92
2018-10-16T04:20:14.990Z,100471.25
2018-10-16T04:21:21.402Z,100469.38
2018-10-16T04:22:27.743Z,100470.64
2018-10-16T04:23:34.369Z,100465.72
2018-10-16T04:24:40.569Z,100466.28
2018-10-16T04:25:46.928Z,100469.32
2018-10-16T04:26:53.205Z,100470.75
2018-10-16T04:27:59.515Z,100470.00
2018-10-16T04:29:05.815Z,100462.91
2018-10-16T04:30:12.325Z,100464.38
2018-10-16T04:31:18.759Z,100472.39
2018-10-16T04:32:25.086Z,100471.27
2018-10-16T04:33:31.369Z,100468.50
2018-10-16T04:34:37.697Z,100470.02
2018-10-16T04:35:44.131Z,100466.62
2018-10-16T04:36:50.414Z,100469.80
2018-10-16T04:37:56.641Z,100467.35
2018-10-16T04:39:02.623Z,100467.81
2018-10-16T04:40:09.005Z,100465.88
2018-10-16T04:41:21.324Z,100469.12
2018-10-16T04:42:27.688Z,100469.14
2018-10-16T04:43:34.088Z,100472.96
2018-10-16T04:44:40.630Z,100471.83
2018-10-16T04:45:46.603Z,100467.42
2018-10-16T04:46:52.966Z,100464.66
2018-10-16T04:47:59.279Z,100463.19
2018-10-16T04:49:05.254Z,100462.45
2018-10-16T04:50:11.575Z,100460.30
2018-10-16T04:51:17.880Z,100459.69
2018-10-16T04:52:24.270Z,100461.11
2018-10-16T04:53:31.610Z,100463.49
2018-10-16T04:54:38.504Z,100469.91
2018-10-16T04:55:44.797Z,100467.87
2018-10-16T04:56:51.088Z,100467.52
2018-10-16T04:57:57.420Z,100471.14
2018-10-16T04:59:03.720Z,100472.61
2018-10-16T05:00:10.124Z,100463.11
2018-10-16T05:01:17.071Z,100467.41
2018-10-16T05:02:23.150Z,100464.75
2018-10-16T05:03:29.492Z,100463.55
2018-10-16T05:04:35.917Z,100455.88
2018-10-16T05:05:42.782Z,100454.66
2018-10-16T05:06:49.811Z,100456.12
2018-10-16T05:07:56.502Z,100451.38
2018-10-16T05:09:03.152Z,100446.91
2018-10-16T05:10:09.199Z,100440.25
2018-10-16T05:11:15.572Z,100441.34
2018-10-16T05:12:21.648Z,100439.55
2018-10-16T05:13:28.046Z,100434.18
2018-10-16T05:14:34.568Z,100433.67
2018-10-16T05:15:41.041Z,100440.03
2018-10-16T05:16:47.036Z,100439.17
2018-10-16T05:17:53.616Z,100445.88
2018-10-16T05:18:59.875Z,100448.78
2018-10-16T05:20:06.071Z,100450.27
2018-10-16T05:21:12.396Z,100461.02
2018-10-16T05:22:18.718Z,100462.36
2018-10-16T05:23:25.054Z,100460.78
2018-10-16T05:24:31.317Z,100464.14
2018-10-16T05:25:37.670Z,100466.98
2018-10-16T05:26:43.989Z,100465.27
2018-10-16T05:27:50.293Z,100472.80
2018-10-16T05:28:56.615Z,100473.16
2018-10-16T05:30:02.896Z,100484.47
2018-10-16T05:31:09.402Z,100483.00
2018-10-16T05:32:15.961Z,100487.37
2018-10-16T05:33:22.272Z,100494.34
2018-10-16T05:34:28.563Z,100492.69
2018-10-16T05:35:34.871Z,100501.27
2018-10-16T05:36:41.285Z,100499.17
2018-10-16T05:37:47.689Z,100496.98
2018-10-16T05:38:54.136Z,100494.98
2018-10-16T05:40:00.424Z,100494.70
2018-10-16T05:41:06.159Z,100499.21
2018-10-16T05:42:12.561Z,100494.27
2018-10-16T05:43:18.873Z,100505.48
2018-10-16T05:44:25.202Z,100508.80
2018-10-16T05:45:31.368Z,100506.69
2018-10-16T05:46:37.809Z,100501.89
2018-10-16T05:47:44.533Z,100496.47
2018-10-16T05:48:50.896Z,100496.89
2018-10-16T05:49:57.249Z,100491.52
2018-10-16T05:51:03.561Z,100495.70
2018-10-16T05:52:09.626Z,100495.84
2018-10-16T05:53:16.003Z,100493.02
2018-10-16T05:54:22.657Z,100498.44
2018-10-16T05:55:29.222Z,100505.51
2018-10-16T05:56:35.685Z,100508.47
2018-10-16T05:57:42.028Z,100505.86
2018-10-16T05:58:48.373Z,100504.89
2018-10-16T05:59:53.972Z,100499.77
2018-10-16T06:01:00.069Z,100504.19
2018-10-16T06:02:05.788Z,100505.73
2018-10-16T06:03:11.465Z,100504.41
2018-10-16T06:04:18.238Z,100506.91
2018-10-16T06:05:24.815Z,100503.37
2018-10-16T06:06:31.086Z,100500.55
2018-10-16T06:07:37.500Z,100493.83
2018-10-16T06:08:43.862Z,100499.30
2018-10-16T06:09:50.232Z,100499.41
2018-10-16T06:10:56.248Z,100495.55
2018-10-16T06:12:02.677Z,100497.27
2018-10-16T06:13:09.292Z,100494.48
2018-10-16T06:14:15.614Z,100497.09
2018-10-16T06:15:21.893Z,100500.82
2018-10-16T06:16:28.302Z,100509.42
2018-10-16T06:17:34.614Z,100511.73
2018-10-16T06:18:40.953Z,100512.09
2018-10-16T06:19:47.243Z,100515.11
2018-10-16T06:20:53.189Z,100517.66
2018-10-16T06:21:59.571Z,100513.86
2018-10-16T06:23:05.248Z,100522.85
2018-10-16T06:24:11.591Z,100520.45
2018-10-16T06:25:17.513Z,100533.24
2018-10-16T06:26:23.905Z,100535.89
2018-10-16T06:27:30.444Z,100537.55
2018-10-16T06:28:36.946Z,100538.66
2018-10-16T06:29:43.229Z,100535.02
2018-10-16T06:30:49.215Z,100541.36
2018-10-16T06:31:55.552Z,100544.68
2018-10-16T06:33:01.680Z,100548.72
2018-10-16T06:34:08.194Z,100545.72
2018-10-16T06:35:14.480Z,100540.63
2018-10-16T06:36:20.805Z,100549.30
2018-10-16T06:37:27.106Z,100545.70
2018-10-16T06:38:33.428Z,100546.05
2018-10-16T06:39:39.754Z,100550.15
2018-10-16T06:40:46.349Z,100544.23
2018-10-16T06:41:52.759Z,100543.05
2018-10-16T06:42:59.096Z,100535.79
2018-10-16T06:44:05.265Z,100542.03
2018-10-16T06:45:11.588Z,100538.60
2018-10-16T06:46:17.948Z,100538.94
2018-10-16T06:47:24.270Z,100541.03
2018-10-16T06:48:31.024Z,100539.97
2018-10-16T06:49:37.472Z,100535.73
2018-10-16T06:50:43.539Z,100532.54
2018-10-16T06:51:49.908Z,100530.73
2018-10-16T06:52:56.188Z,100528.02
2018-10-16T06:54:02.539Z,100534.55
2018-10-16T06:55:08.825Z,100534.56
2018-10-16T06:56:15.470Z,100536.98
2018-10-16T06:57:21.743Z,100539.28
2018-10-16T06:58:28.049Z,100542.98
2018-10-16T06:59:34.393Z,100548.06
2018-10-16T07:00:40.687Z,100546.23
2018-10-16T07:01:46.921Z,100548.25
2018-10-16T07:02:53.205Z,100548.14
2018-10-16T07:03:59.543Z,100550.48
2018-10-16T07:05:05.143Z,100559.04
2018-10-16T07:06:11.547Z,100562.45
2018-10-16T07:07:19.078Z,100571.42
2018-10-16T07:08:25.574Z,100578.95
2018-10-16T07:09:31.938Z,100583.94
2018-10-16T07:10:38.233Z,100588.34
2018-10-16T07:11:44.694Z,100586.39
2018-10-16T07:12:50.924Z,100586.61
2018-10-16T07:13:57.264Z,100582.02
2018-10-16T07:15:03.656Z,100575.34
2018-10-16T07:16:10.215Z,100567.64
2018-10-16T07:17:16.488Z,100561.99
2018-10-16T07:18:22.803Z,100559.12
2018-10-16T07:19:29.126Z,100563.42
2018-10-16T07:20:35.422Z,100563.16
2018-10-16T07:21:41.552Z,100561.66
2018-10-16T07:22:48.044Z,100566.87
2018-10-16T07:23:54.485Z,100579.23
2018-10-16T07:25:00.899Z,100585.91
2018-10-16T07:26:06.861Z,100585.76
2018-10-16T07:27:12.857Z,100591.52
2018-10-16T07:28:19.197Z,100590.47
2018-10-16T07:29:25.201Z,100586.25
2018-10-16T07:30:31.532Z,100586.64
2018-10-16T07:31:37.645Z,100590.19
2018-10-16T07:32:43.972Z,100594.14
2018-10-16T07:33:50.261Z,100583.86
2018-10-16T07:34:56.606Z,100579.16
2018-10-16T07:36:03.103Z,100576.05
2018-10-16T07:37:09.058Z,100576.59
2018-10-16T07:38:15.587Z,100578.44
2018-10-16T07:39:21.944Z,100583.80
2018-10-16T07:40:28.292Z,100595.60
2018-10-16T07:41:34.549Z,100596.03
2018-10-16T07:42:40.835Z,100590.21
2018-10-16T07:43:47.277Z,100582.52
2018-10-16T07:44:53.643Z,100584.65
2018-10-16T07:45:59.975Z,100585.30
2018-10-16T07:47:05.594Z,100587.35
2018-10-16T07:48:11.630Z,100594.40
2018-10-16T07:49:18.002Z,100594.75
2018-10-16T07:50:24.438Z,100598.13
2018-10-16T07:51:30.812Z,100588.55
2018-10-16T07:52:37.131Z,100592.30
2018-10-16T07:53:43.449Z,100592.72
2018-10-16T07:54:49.791Z,100594.66
2018-10-16T07:55:55.716Z,100585.34
2018-10-16T07:57:02.161Z,100593.34
2018-10-16T07:58:08.710Z,100584.08
2018-10-16T07:59:15.287Z,100589.79
2018-10-16T08:00:21.318Z,100591.96
2018-10-16T08:01:27.333Z,100604.42
2018-10-16T08:02:33.323Z,100599.63
2018-10-16T08:03:39.662Z,100600.75
2018-10-16T08:04:45.955Z,100593.84
2018-10-16T08:05:52.297Z,100592.94
2018-10-16T08:06:58.584Z,100593.67
2018-10-16T08:08:04.557Z,100599.31
2018-10-16T08:09:10.226Z,100596.52
2018-10-16T08:10:16.241Z,100595.98
2018-10-16T08:11:22.566Z,100597.22
2018-10-16T08:12:28.928Z,100605.53
2018-10-16T08:13:35.240Z,100609.96
2018-10-16T08:14:41.527Z,100613.74
2018-10-16T08:15:47.872Z,100620.56
2018-10-16T08:16:54.230Z,100613.84
2018-10-16T08:18:00.560Z,100613.19
2018-10-16T08:19:06.884Z,100615.13
2018-10-16T08:20:13.239Z,100612.36
2018-10-16T08:21:19.516Z,100621.33
2018-10-16T08:22:25.553Z,100614.05
2018-10-16T08:23:31.921Z,100610.81
2018-10-16T08:24:38.236Z,100612.45
2018-10-16T08:25:44.573Z,100609.92
2018-10-16T08:26:51.010Z,100608.14
2018-10-16T08:27:57.476Z,100603.67
2018-10-16T08:29:03.784Z,100600.11
2018-10-16T08:30:09.903Z,100593.13
2018-10-16T08:31:16.447Z,100591.94
2018-10-16T08:32:22.729Z,100590.27
2018-10-16T08:33:29.051Z,100592.67
2018-10-16T08:34:35.608Z,100587.81
2018-10-16T08:35:41.909Z,100589.61
2018-10-16T08:36:48.191Z,100593.56
2018-10-16T08:37:54.029Z,100594.66
2018-10-16T08:38:59.866Z,100597.52
2018-10-16T08:40:05.520Z,100606.28
2018-10-16T08:41:11.141Z,100604.22
2018-10-16T08:42:16.498Z,100604.81
2018-10-16T08:45:01.085Z,100598.02
2018-10-16T08:46:18.482Z,100593.68
2018-10-16T08:47:35.760Z,100592.02
2018-10-16T08:50:48.919Z,100591.88
2018-10-16T08:51:54.957Z,100583.88
2018-10-16T08:53:00.904Z,100585.06
2018-10-16T08:54:06.962Z,100585.80
2018-10-16T08:55:13.302Z,100585.16
2018-10-16T08:56:19.622Z,100586.30
2018-10-16T08:57:25.922Z,100591.70
2018-10-16T08:58:32.209Z,100591.27
2018-10-16T08:59:38.533Z,100591.50
2018-10-16T09:00:44.500Z,100600.61
2018-10-16T09:01:50.527Z,100601.31
2018-10-16T09:02:56.849Z,100605.78
2018-10-16T09:04:03.167Z,100608.47
2018-10-16T09:05:09.485Z,100602.23
2018-10-16T09:06:15.808Z,100604.55
2018-10-16T09:07:22.098Z,100605.66
2018-10-16T09:08:28.395Z,100606.80
2018-10-16T09:09:34.729Z,100608.92
2018-10-16T09:10:40.973Z,100598.80
2018-10-16T09:11:46.672Z,100600.33
2018-10-16T09:12:53.041Z,100600.77
2018-10-16T09:13:59.428Z,100598.44
2018-10-16T09:15:05.305Z,100602.40
2018-10-16T09:16:11.702Z,100594.55
2018-10-16T09:17:17.984Z,100598.34
2018-10-16T09:18:24.296Z,100602.73
2018-10-16T09:19:30.614Z,100596.95
2018-10-16T09:20:36.917Z,100609.11
2018-10-16T09:21:43.257Z,100603.37
2018-10-16T09:22:50.372Z,100606.37
2018-10-16T09:23:56.765Z,100605.42
2018-10-16T09:25:02.805Z,100608.38
2018-10-16T09:26:10.037Z,100608.14
2018-10-16T09:27:16.324Z,100606.72
2018-10-16T09:28:22.665Z,100611.80
2018-10-16T09:29:28.970Z,100609.05
2018-10-16T09:30:35.268Z,100612.80
2018-10-16T09:31:41.548Z,100614.69
2018-10-16T09:32:47.781Z,100614.61
2018-10-16T09:33:54.080Z,100614.26
2018-10-16T09:35:00.407Z,100613.78
2018-10-16T09:36:06.064Z,100618.98
2018-10-16T09:37:12.338Z,100614.80
2018-10-16T09:38:18.276Z,100617.83
2018-10-16T09:39:24.643Z,100616.84
2018-10-16T09:40:30.607Z,100620.76
2018-10-16T09:41:36.989Z,100617.63
2018-10-16T09:42:43.251Z,100616.99
2018-10-16T09:43:49.647Z,100616.38
2018-10-16T09:44:56.024Z,100621.08
2018-10-16T09:46:02.296Z,100616.77
2018-10-16T09:47:08.655Z,100622.12
2018-10-16T09:48:15.019Z,100620.94
2018-10-16T09:49:21.364Z,100620.91
2018-10-16T09:50:27.852Z,100628.11
2018-10-16T09:51:34.183Z,100617.28
2018-10-16T09:52:40.467Z,100626.11
2018-10-16T09:53:46.850Z,100619.97
2018-10-16T09:54:53.106Z,100626.63
2018-10-16T09:55:59.445Z,100623.42
2018-10-16T09:57:05.815Z,100628.64
2018-10-16T09:58:12.251Z,100624.23
2018-10-16T09:59:18.583Z,100631.14
2018-10-16T10:00:24.732Z,100626.57
2018-10-16T10:01:46.885Z,100627.23
2018-10-16T10:02:53.253Z,100627.05
2018-10-16T10:03:59.560Z,100629.52
2018-10-16T10:05:05.282Z,100626.70
2018-10-16T10:06:11.668Z,100629.16
2018-10-16T10:07:18.027Z,100626.63
2018-10-16T10:08:24.301Z,100626.86
2018-10-16T10:09:30.604Z,100624.13
2018-10-16T10:10:36.557Z,100626.36
2018-10-16T10:11:42.967Z,100628.58
2018-10-16T10:12:49.352Z,100622.63
2018-10-16T10:13:55.647Z,100627.07
2018-10-16T10:15:01.989Z,100621.31
2018-10-16T10:16:08.286Z,100623.25
2018-10-16T10:17:14.716Z,100622.09
2018-10-16T10:18:21.026Z,100625.43
2018-10-16T10:19:27.322Z,100628.21
2018-10-16T10:20:33.647Z,100630.15
2018-10-16T10:21:39.963Z,100633.05
2018-10-16T10:22:47.218Z,100629.31
2018-10-16T10:23:53.495Z,100627.22
2018-10-16T10:24:59.838Z,100626.06
2018-10-16T10:26:06.211Z,100628.44
2018-10-16T10:27:12.540Z,100631.62
2018-10-16T10:28:18.865Z,100626.33
2018-10-16T10:29:25.138Z,100632.13
2018-10-16T10:30:31.528Z,100628.36
2018-10-16T10:31:37.865Z,100625.28
2018-10-16T10:32:44.214Z,100629.08
2018-10-16T10:33:50.596Z,100631.10
2018-10-16T10:34:56.875Z,100637.19
2018-10-16T10:36:03.136Z,100632.66
2018-10-16T10:37:09.453Z,100638.38
2018-10-16T10:38:15.733Z,100632.90
2018-10-16T10:39:22.053Z,100636.33
2018-10-16T10:40:28.679Z,100630.62
2018-10-16T10:41:34.983Z,100631.16
2018-10-16T10:42:41.350Z,100632.97
2018-10-16T10:43:47.676Z,100639.70
2018-10-16T10:44:53.952Z,100627.44
2018-10-16T10:46:00.228Z,100628.23
2018-10-16T10:47:05.880Z,100627.97
2018-10-16T10:48:12.244Z,100630.81
2018-10-16T10:49:18.559Z,100628.20
2018-10-16T10:50:25.152Z,100619.94
2018-10-16T10:51:31.799Z,100626.75
2018-10-16T10:52:37.957Z,100625.20
2018-10-16T10:53:44.213Z,100626.87
2018-10-16T10:54:50.528Z,100632.16
2018-10-16T10:55:56.840Z,100622.53
2018-10-16T10:57:03.283Z,100622.23
2018-10-16T10:58:09.775Z,100621.17
2018-10-16T10:59:16.108Z,100621.31
2018-10-16T11:00:22.032Z,100619.38
2018-10-16T11:01:28.395Z,100619.61
2018-10-16T11:02:34.494Z,100614.39
2018-10-16T11:03:41.008Z,100611.75
2018-10-16T11:04:47.404Z,100614.66
2018-10-16T11:05:53.675Z,100615.38
2018-10-16T11:06:59.957Z,100617.70
2018-10-16T11:08:05.956Z,100613.77
2018-10-16T11:09:12.338Z,100616.31
2018-10-16T11:10:18.946Z,100614.13
2018-10-16T11:11:25.298Z,100614.70
2018-10-16T11:12:31.664Z,100613.47
2018-10-16T11:13:37.939Z,100611.67
2018-10-16T11:14:44.140Z,100613.41
2018-10-16T11:15:50.496Z,100612.57
2018-10-16T11:16:56.863Z,100614.84
2018-10-16T11:18:03.121Z,100613.95
2018-10-16T11:19:09.441Z,100613.80
2018-10-16T11:20:16.029Z,100615.42
2018-10-16T11:21:22.318Z,100618.88
2018-10-16T11:22:28.659Z,100616.18
2018-10-16T11:23:35.015Z,100624.72
2018-10-16T11:24:41.333Z,100615.48
2018-10-16T11:25:47.667Z,100621.62
2018-10-16T11:26:54.047Z,100623.71
2018-10-16T11:28:00.637Z,100618.95
2018-10-16T11:29:06.255Z,100624.73
2018-10-16T11:30:12.666Z,100624.69
2018-10-16T11:31:19.134Z,100624.16
2018-10-16T11:32:25.472Z,100625.52
2018-10-16T11:33:31.901Z,100625.33
2018-10-16T11:34:38.166Z,100632.96
2018-10-16T11:35:44.483Z,100629.78
2018-10-16T11:36:50.787Z,100635.89
2018-10-16T11:37:57.337Z,100628.77
2018-10-16T11:39:03.322Z,100633.73
2018-10-16T11:40:10.816Z,100634.86
2018-10-16T11:41:18.532Z,100634.72
2018-10-16T11:42:24.810Z,100642.93
2018-10-16T11:43:31.190Z,100630.64
2018-10-16T11:44:37.425Z,100631.20
2018-10-16T11:45:43.805Z,100631.23
2018-10-16T11:46:50.393Z,100629.05
2018-10-16T11:47:56.707Z,100627.28
2018-10-16T11:49:02.991Z,100626.73
2018-10-16T11:50:08.649Z,100631.78
2018-10-16T11:51:15.197Z,100628.22
2018-10-16T11:52:21.360Z,100630.23
2018-10-16T11:53:27.812Z,100633.99
2018-10-16T11:54:34.028Z,100626.38
2018-10-16T11:55:40.348Z,100626.73
2018-10-16T11:56:46.656Z,100623.87
2018-10-16T11:57:52.995Z,100629.98
2018-10-16T11:58:59.308Z,100621.94
2018-10-16T12:00:05.305Z,100627.88
2018-10-16T12:01:11.716Z,100629.77
2018-10-16T12:02:18.049Z,100631.12
2018-10-16T12:03:24.665Z,100622.79
2018-10-16T12:04:30.971Z,100623.19
2018-10-16T12:05:37.302Z,100625.75
2018-10-16T12:06:43.229Z,100631.36
2018-10-16T12:07:49.600Z,100625.31
2018-10-16T12:08:55.885Z,100628.54
2018-10-16T12:10:02.089Z,100627.85
2018-10-16T12:11:08.155Z,100628.00
2018-10-16T12:12:14.617Z,100633.85
2018-10-16T12:13:20.962Z,100635.81
2018-10-16T12:14:27.236Z,100636.77
2018-10-16T12:15:33.580Z,100639.50
2018-10-16T12:16:39.868Z,100633.86
2018-10-16T12:17:46.144Z,100628.53
2018-10-16T12:18:52.338Z,100632.20
2018-10-16T12:19:58.833Z,100630.42
2018-10-16T12:21:04.919Z,100629.38
2018-10-16T12:22:11.433Z,100633.73
2018-10-16T12:23:17.785Z,100633.05
2018-10-16T12:24:24.049Z,100631.73
2018-10-16T12:25:30.357Z,100627.28
2018-10-16T12:26:36.345Z,100631.67
2018-10-16T12:27:42.672Z,100631.55
2018-10-16T12:28:49.024Z,100627.72
2018-10-16T12:29:55.327Z,100628.37
2018-10-16T12:31:01.810Z,100626.84
2018-10-16T12:32:08.387Z,100625.14
2018-10-16T12:33:15.101Z,100627.73
2018-10-16T12:34:21.516Z,100628.44
2018-10-16T12:35:27.786Z,100614.83
2018-10-16T12:36:34.043Z,100625.39
2018-10-16T12:37:40.294Z,100619.54
2018-10-16T12:38:46.289Z,100624.20
2018-10-16T12:39:52.676Z,100624.23
2018-10-16T12:40:59.305Z,100620.22